createdAt,value
2022-07-28T00:04:08.548Z,3.25
2022-07-28T00:09:16.742Z,4.65
2022-07-28T00:14:24.767Z,3.00
2022-07-28T00:19:31.309Z,2.30
2022-07-28T00:24:39.152Z,2.55
2022-07-28T00:29:49.664Z,2.30
2022-07-28T00:34:55.765Z,1.80
2022-07-28T00:40:03.709Z,2.22
2022-07-28T00:45:10.163Z,2.15
2022-07-28T00:50:16.347Z,2.10
2022-07-28T00:55:25.056Z,2.72
2022-07-28T01:00:31.712Z,2.25
2022-07-28T01:05:43.279Z,2.15
2022-07-28T01:10:58.676Z,1.95
2022-07-28T01:16:06.738Z,2.22
2022-07-28T01:21:15.977Z,2.03
2022-07-28T01:31:37.223Z,1.73
2022-07-28T01:36:46.832Z,1.60
2022-07-28T01:41:53.648Z,2.10
2022-07-28T01:47:03.384Z,2.10
2022-07-28T01:52:11.152Z,1.90
2022-07-28T01:57:17.720Z,2.15
2022-07-28T02:02:26.480Z,2.20
2022-07-28T02:07:32.966Z,2.20
2022-07-28T02:12:38.783Z,1.83
2022-07-28T02:17:48.701Z,2.20
2022-07-28T02:22:58.628Z,1.85
2022-07-28T02:28:08.323Z,2.20
2022-07-28T02:33:23.314Z,1.80
2022-07-28T02:38:47.866Z,2.05
2022-07-28T02:43:54.502Z,2.25
2022-07-28T02:49:06.672Z,1.98
2022-07-28T02:54:12.800Z,2.50
2022-07-28T02:59:19.872Z,1.88
2022-07-28T03:04:39.990Z,1.75
2022-07-28T03:09:46.815Z,1.90
2022-07-28T03:14:52.071Z,2.15
2022-07-28T03:19:59.808Z,2.08
2022-07-28T03:25:06.021Z,1.98
2022-07-28T03:30:16.569Z,2.00
2022-07-28T03:35:24.495Z,1.95
2022-07-28T03:40:33.035Z,2.47
2022-07-28T03:45:40.837Z,2.23
2022-07-28T03:50:48.684Z,2.25
2022-07-28T03:55:53.992Z,2.25
2022-07-28T04:00:59.126Z,2.00
2022-07-28T04:06:06.974Z,2.05
2022-07-28T04:11:11.992Z,2.40
2022-07-28T04:16:17.037Z,2.58
2022-07-28T04:21:26.737Z,2.30
2022-07-28T04:26:31.873Z,2.20
2022-07-28T04:31:36.947Z,2.38
2022-07-28T04:36:45.005Z,2.17
2022-07-28T04:41:51.126Z,2.20
2022-07-28T04:46:56.144Z,2.13
2022-07-28T04:52:03.924Z,2.20
2022-07-28T04:57:12.005Z,2.05
2022-07-28T05:02:17.946Z,2.22
2022-07-28T05:07:25.604Z,2.47
2022-07-28T05:12:31.438Z,2.38
2022-07-28T05:17:37.729Z,2.20
2022-07-28T05:22:51.066Z,2.40
2022-07-28T05:27:56.636Z,2.13
2022-07-28T05:33:02.146Z,2.10
2022-07-28T05:38:11.856Z,2.25
2022-07-28T05:43:19.881Z,2.20
2022-07-28T05:48:25.457Z,2.00
2022-07-28T05:53:33.210Z,2.20
2022-07-28T05:58:38.332Z,2.22
2022-07-28T06:03:54.138Z,3.28
2022-07-28T06:09:12.924Z,2.42
2022-07-28T06:14:18.360Z,2.53
2022-07-28T06:19:24.804Z,1.98
2022-07-28T06:24:32.583Z,2.42
2022-07-28T06:29:37.603Z,2.67
2022-07-28T06:34:44.285Z,2.58
2022-07-28T06:39:51.940Z,4.82
2022-07-28T06:44:59.685Z,2.40
2022-07-28T06:50:04.877Z,2.67
2022-07-28T06:55:16.183Z,3.28
2022-07-28T07:00:21.519Z,11.70
2022-07-28T07:05:29.613Z,7.53
2022-07-28T07:10:37.538Z,2.47
2022-07-28T07:15:42.604Z,2.60
2022-07-28T07:20:47.668Z,2.22
2022-07-28T07:25:55.318Z,2.50
2022-07-28T07:31:01.281Z,5.85
2022-07-28T07:36:07.125Z,2.55
2022-07-28T07:41:15.242Z,6.18
2022-07-28T07:46:20.583Z,2.67
2022-07-28T07:51:25.682Z,1.95
2022-07-28T07:56:34.207Z,2.13
2022-07-28T08:01:40.550Z,2.47
2022-07-28T08:06:45.826Z,2.22
2022-07-28T08:11:53.984Z,2.55
2022-07-28T08:16:59.734Z,2.87
2022-07-28T08:22:04.912Z,2.17
2022-07-28T08:27:12.738Z,2.28
2022-07-28T08:32:17.823Z,2.33
2022-07-28T08:37:22.886Z,2.35
2022-07-28T08:42:38.660Z,2.20
2022-07-28T08:48:07.177Z,2.38
2022-07-28T08:53:11.117Z,2.15
2022-07-28T08:58:22.129Z,2.90
2022-07-28T09:03:30.149Z,2.47
2022-07-28T09:08:35.279Z,3.05
2022-07-28T09:13:44.139Z,3.25
2022-07-28T09:18:51.939Z,5.18
2022-07-28T09:23:56.930Z,3.67
2022-07-28T09:29:08.708Z,3.70
2022-07-28T09:34:16.506Z,2.50
2022-07-28T09:39:38.531Z,2.30
2022-07-28T09:45:05.838Z,2.90
2022-07-28T09:50:30.060Z,2.90
2022-07-28T09:55:56.818Z,2.85
2022-07-28T10:01:13.006Z,3.10
2022-07-28T10:06:19.143Z,2.75
2022-07-28T10:11:27.054Z,3.13
2022-07-28T10:16:36.517Z,3.47
2022-07-28T10:21:47.097Z,3.38
2022-07-28T10:26:52.716Z,2.88
2022-07-28T10:32:05.253Z,3.10
2022-07-28T10:37:27.941Z,3.25
2022-07-28T10:42:33.556Z,3.20
2022-07-28T10:47:41.254Z,2.97
2022-07-28T10:52:48.310Z,2.97
2022-07-28T10:58:10.815Z,3.08
2022-07-28T11:03:40.569Z,3.13
2022-07-28T11:08:47.698Z,2.50
2022-07-28T11:13:52.842Z,2.60
2022-07-28T11:19:38.030Z,2.58
2022-07-28T11:25:18.618Z,2.72
2022-07-28T11:30:59.001Z,2.83
2022-07-28T11:36:06.865Z,2.47
2022-07-28T11:41:32.386Z,2.77
2022-07-28T11:46:39.976Z,2.50
2022-07-28T11:52:21.187Z,3.03
2022-07-28T11:57:28.092Z,2.83
2022-07-28T12:02:34.912Z,2.50
2022-07-28T12:07:45.907Z,2.50
2022-07-28T12:12:53.279Z,2.60
2022-07-28T12:17:59.319Z,2.88
2022-07-28T12:23:10.487Z,2.92
2022-07-28T12:28:23.020Z,3.30
2022-07-28T12:33:30.015Z,2.63
2022-07-28T12:38:37.685Z,3.15
2022-07-28T12:43:42.878Z,3.00
2022-07-28T12:48:48.738Z,3.33
2022-07-28T12:53:57.939Z,4.75
2022-07-28T12:59:10.929Z,3.95
2022-07-28T13:04:16.497Z,7.70
2022-07-28T13:09:32.846Z,4.20
2022-07-28T13:15:07.153Z,4.25
2022-07-28T13:20:30.852Z,3.25
2022-07-28T13:25:40.543Z,3.13
2022-07-28T13:30:45.824Z,3.08
2022-07-28T13:35:51.154Z,2.50
2022-07-28T13:40:58.863Z,2.50
2022-07-28T13:46:04.539Z,2.92
2022-07-28T13:51:11.000Z,2.25
2022-07-28T13:56:18.730Z,2.22
2022-07-28T14:01:24.121Z,2.15
2022-07-28T14:06:34.588Z,2.53
2022-07-28T14:11:49.979Z,4.03
2022-07-28T14:17:00.132Z,2.58
2022-07-28T14:22:12.788Z,2.10
2022-07-28T14:27:24.623Z,2.70
2022-07-28T14:32:33.412Z,2.50
2022-07-28T14:38:11.572Z,2.70
2022-07-28T14:43:08.320Z,2.35
2022-07-28T14:53:22.344Z,2.40
2022-07-28T14:58:29.972Z,2.80
2022-07-28T15:03:36.602Z,2.63
2022-07-28T15:08:42.840Z,4.97
2022-07-28T15:13:50.472Z,2.90
2022-07-28T15:18:55.738Z,2.40
2022-07-28T15:24:01.704Z,2.70
2022-07-28T15:29:09.576Z,3.17
2022-07-28T15:34:16.299Z,2.90
2022-07-28T15:39:23.283Z,2.45
2022-07-28T15:44:31.006Z,3.08
2022-07-28T15:49:36.043Z,3.00
2022-07-28T15:54:41.263Z,4.35
2022-07-28T15:59:50.885Z,7.70
2022-07-28T16:04:56.073Z,14.63
2022-07-28T16:10:01.591Z,7.10
2022-07-28T16:15:10.311Z,3.83
2022-07-28T16:20:16.653Z,5.57
2022-07-28T16:25:21.794Z,8.02
2022-07-28T16:30:32.009Z,17.52
2022-07-28T16:35:37.400Z,8.43
2022-07-28T16:40:42.477Z,4.78
2022-07-28T16:45:52.150Z,4.15
2022-07-28T16:50:57.260Z,3.45
2022-07-28T16:56:02.474Z,3.30
2022-07-28T17:01:10.179Z,4.70
2022-07-28T17:06:16.584Z,4.70
2022-07-28T17:11:23.794Z,3.58
2022-07-28T17:16:31.526Z,2.67
2022-07-28T17:21:37.588Z,4.03
2022-07-28T17:32:10.686Z,2.80
2022-07-28T17:37:16.544Z,3.38
2022-07-28T17:42:21.715Z,3.70
2022-07-28T17:47:35.978Z,4.70
2022-07-28T17:52:41.788Z,2.90
2022-07-28T17:57:47.216Z,4.05
2022-07-28T18:02:54.942Z,2.65
2022-07-28T18:08:32.342Z,2.90
2022-07-28T18:41:49.485Z,5.50
2022-07-28T18:47:29.472Z,4.32
2022-07-28T18:52:35.291Z,4.32
2022-07-28T18:57:43.081Z,3.85
2022-07-28T19:03:03.695Z,2.75
2022-07-28T19:08:09.435Z,4.95
2022-07-28T19:13:17.384Z,3.00
2022-07-28T19:18:25.110Z,3.58
2022-07-28T19:23:31.422Z,2.63
2022-07-28T19:28:37.169Z,3.17
2022-07-28T19:33:44.874Z,3.05
2022-07-28T19:38:49.933Z,3.05
2022-07-28T19:43:54.997Z,3.05
2022-07-28T19:49:02.792Z,3.83
2022-07-28T19:54:08.326Z,4.03
2022-07-28T19:59:14.392Z,4.85
2022-07-28T20:04:22.355Z,4.60
2022-07-28T20:09:27.533Z,3.77
2022-07-28T20:14:32.539Z,3.38
2022-07-28T20:19:40.232Z,4.30
2022-07-28T20:24:45.737Z,5.38
2022-07-28T20:29:50.801Z,7.72
2022-07-28T20:34:58.570Z,6.18
2022-07-28T20:40:03.859Z,5.50
2022-07-28T20:45:10.848Z,7.18
2022-07-28T20:50:20.723Z,8.20
2022-07-28T20:55:26.599Z,9.65
2022-07-28T21:00:31.649Z,9.70
2022-07-28T21:05:39.503Z,15.90
2022-07-28T21:10:46.297Z,15.75
2022-07-28T21:15:52.291Z,11.25
2022-07-28T21:20:59.955Z,5.45
2022-07-28T21:26:05.024Z,4.35
2022-07-28T21:31:12.326Z,4.78
2022-07-28T21:36:20.019Z,3.83
2022-07-28T21:41:25.563Z,3.80
2022-07-28T21:46:30.938Z,4.15
2022-07-28T21:51:39.244Z,4.30
2022-07-28T21:56:44.284Z,4.63
2022-07-28T22:01:49.423Z,4.47
2022-07-28T22:06:57.196Z,5.90
2022-07-28T22:12:02.344Z,9.68
2022-07-28T22:17:07.363Z,5.65
2022-07-28T22:22:18.556Z,6.55
2022-07-28T22:27:23.727Z,5.82
2022-07-28T22:32:29.555Z,6.45
2022-07-28T22:37:37.256Z,5.80
2022-07-28T22:42:42.415Z,5.75
2022-07-28T22:47:47.486Z,6.10
2022-07-28T22:52:55.144Z,6.05
2022-07-28T22:58:04.898Z,6.13
2022-07-28T23:03:13.094Z,6.53
2022-07-28T23:08:21.406Z,6.23
2022-07-28T23:13:26.614Z,5.97
2022-07-28T23:18:31.775Z,6.78
2022-07-28T23:23:39.568Z,5.97
2022-07-28T23:28:45.103Z,6.63
2022-07-28T23:33:54.233Z,6.55
2022-07-28T23:39:05.515Z,6.38
2022-07-28T23:44:10.654Z,6.07
2022-07-28T23:49:15.915Z,5.68
2022-07-28T23:54:23.724Z,6.38
2022-07-28T23:59:28.880Z,6.75
